sensor_id;sensor_type;location;lat;lon;timestamp;temperature;humidity
41882;DHT22;27562;47.524;12.404;2024-02-28T00:00:04;1.80;99.90
41882;DHT22;27562;47.524;12.404;2024-02-28T00:02:30;1.80;99.90
41882;DHT22;27562;47.524;12.404;2024-02-28T00:04:56;1.80;99.90
41882;DHT22;27562;47.524;12.404;2024-02-28T00:07:24;1.80;99.90
41882;DHT22;27562;47.524;12.404;2024-02-28T00:09:50;1.80;99.90
41882;DHT22;27562;47.524;12.404;2024-02-28T00:12:16;1.80;99.90
41882;DHT22;27562;47.524;12.404;2024-02-28T00:14:41;1.80;99.90
41882;DHT22;27562;47.524;12.404;2024-02-28T00:17:07;1.70;99.90
41882;DHT22;27562;47.524;12.404;2024-02-28T00:19:33;1.60;99.90
41882;DHT22;27562;47.524;12.404;2024-02-28T00:21:58;1.50;99.90
41882;DHT22;27562;47.524;12.404;2024-02-28T00:24:25;1.50;99.90
41882;DHT22;27562;47.524;12.404;2024-02-28T00:26:51;1.40;99.90
41882;DHT22;27562;47.524;12.404;2024-02-28T00:29:17;1.30;99.90
41882;DHT22;27562;47.524;12.404;2024-02-28T00:31:42;1.40;99.90
41882;DHT22;27562;47.524;12.404;2024-02-28T00:34:08;1.40;99.90
41882;DHT22;27562;47.524;12.404;2024-02-28T00:36:34;1.40;99.90
41882;DHT22;27562;47.524;12.404;2024-02-28T00:39:00;1.50;99.90
41882;DHT22;27562;47.524;12.404;2024-02-28T00:41:25;1.50;99.90
41882;DHT22;27562;47.524;12.404;2024-02-28T00:43:51;1.50;99.90
41882;DHT22;27562;47.524;12.404;2024-02-28T00:46:17;1.50;99.90
41882;DHT22;27562;47.524;12.404;2024-02-28T00:48:42;1.50;99.90
41882;DHT22;27562;47.524;12.404;2024-02-28T00:51:08;1.50;99.90
41882;DHT22;27562;47.524;12.404;2024-02-28T00:53:34;1.50;99.90
41882;DHT22;27562;47.524;12.404;2024-02-28T00:55:59;1.60;99.90
41882;DHT22;27562;47.524;12.404;2024-02-28T00:58:25;1.60;99.90
41882;DHT22;27562;47.524;12.404;2024-02-28T01:00:53;1.60;99.90
41882;DHT22;27562;47.524;12.404;2024-02-28T01:03:19;1.60;99.90
41882;DHT22;27562;47.524;12.404;2024-02-28T01:05:45;1.60;99.90
41882;DHT22;27562;47.524;12.404;2024-02-28T01:08:10;1.60;99.90
41882;DHT22;27562;47.524;12.404;2024-02-28T01:10:36;1.60;99.90
41882;DHT22;27562;47.524;12.404;2024-02-28T01:13:02;1.60;99.90
41882;DHT22;27562;47.524;12.404;2024-02-28T01:15:28;1.60;99.90
41882;DHT22;27562;47.524;12.404;2024-02-28T01:17:53;1.60;99.90
41882;DHT22;27562;47.524;12.404;2024-02-28T01:20:19;1.70;99.90
41882;DHT22;27562;47.524;12.404;2024-02-28T01:22:45;1.60;99.90
41882;DHT22;27562;47.524;12.404;2024-02-28T01:25:10;1.60;99.90
41882;DHT22;27562;47.524;12.404;2024-02-28T01:27:36;1.70;99.90
41882;DHT22;27562;47.524;12.404;2024-02-28T01:30:02;1.70;99.90
41882;DHT22;27562;47.524;12.404;2024-02-28T01:32:29;1.70;99.90
41882;DHT22;27562;47.524;12.404;2024-02-28T01:34:55;1.80;99.90
41882;DHT22;27562;47.524;12.404;2024-02-28T01:37:21;1.80;99.90
41882;DHT22;27562;47.524;12.404;2024-02-28T01:39:47;1.80;99.90
41882;DHT22;27562;47.524;12.404;2024-02-28T01:42:14;1.90;99.90
41882;DHT22;27562;47.524;12.404;2024-02-28T01:44:44;1.90;99.90
41882;DHT22;27562;47.524;12.404;2024-02-28T01:47:12;1.90;99.90
41882;DHT22;27562;47.524;12.404;2024-02-28T01:49:38;1.90;99.90
41882;DHT22;27562;47.524;12.404;2024-02-28T01:52:04;1.90;99.90
41882;DHT22;27562;47.524;12.404;2024-02-28T01:54:31;1.90;99.90
41882;DHT22;27562;47.524;12.404;2024-02-28T01:56:59;1.90;99.90
41882;DHT22;27562;47.524;12.404;2024-02-28T01:59:26;1.90;99.90
41882;DHT22;27562;47.524;12.404;2024-02-28T02:01:53;1.90;99.90
41882;DHT22;27562;47.524;12.404;2024-02-28T02:04:19;1.80;99.90
41882;DHT22;27562;47.524;12.404;2024-02-28T02:06:45;1.80;99.90
41882;DHT22;27562;47.524;12.404;2024-02-28T02:09:12;1.80;99.90
41882;DHT22;27562;47.524;12.404;2024-02-28T02:11:39;1.70;99.90
41882;DHT22;27562;47.524;12.404;2024-02-28T02:14:05;1.80;99.90
41882;DHT22;27562;47.524;12.404;2024-02-28T02:16:30;1.70;99.90
41882;DHT22;27562;47.524;12.404;2024-02-28T02:18:56;1.70;99.90
41882;DHT22;27562;47.524;12.404;2024-02-28T02:21:37;1.70;99.90
41882;DHT22;27562;47.524;12.404;2024-02-28T02:24:03;1.80;99.90
41882;DHT22;27562;47.524;12.404;2024-02-28T02:26:29;1.80;99.90
41882;DHT22;27562;47.524;12.404;2024-02-28T02:28:55;1.80;99.90
41882;DHT22;27562;47.524;12.404;2024-02-28T02:31:20;1.80;99.90
41882;DHT22;27562;47.524;12.404;2024-02-28T02:33:46;1.90;99.90
41882;DHT22;27562;47.524;12.404;2024-02-28T02:36:11;1.90;99.90
41882;DHT22;27562;47.524;12.404;2024-02-28T02:38:37;1.90;99.90
41882;DHT22;27562;47.524;12.404;2024-02-28T02:41:03;1.90;99.90
41882;DHT22;27562;47.524;12.404;2024-02-28T02:43:29;2.00;99.90
41882;DHT22;27562;47.524;12.404;2024-02-28T02:45:54;1.90;99.90
41882;DHT22;27562;47.524;12.404;2024-02-28T02:48:20;2.00;99.90
41882;DHT22;27562;47.524;12.404;2024-02-28T02:50:46;2.00;99.90
41882;DHT22;27562;47.524;12.404;2024-02-28T02:53:12;2.00;99.90
41882;DHT22;27562;47.524;12.404;2024-02-28T02:55:38;2.00;99.90
41882;DHT22;27562;47.524;12.404;2024-02-28T02:58:04;2.00;99.90
41882;DHT22;27562;47.524;12.404;2024-02-28T03:00:29;2.00;99.90
41882;DHT22;27562;47.524;12.404;2024-02-28T03:02:55;2.00;99.90
41882;DHT22;27562;47.524;12.404;2024-02-28T03:05:21;2.00;99.90
41882;DHT22;27562;47.524;12.404;2024-02-28T03:07:47;2.00;99.90
41882;DHT22;27562;47.524;12.404;2024-02-28T03:10:13;2.00;99.90
41882;DHT22;27562;47.524;12.404;2024-02-28T03:12:38;2.00;99.90
41882;DHT22;27562;47.524;12.404;2024-02-28T03:15:05;2.00;99.90
41882;DHT22;27562;47.524;12.404;2024-02-28T03:17:31;2.00;99.90
41882;DHT22;27562;47.524;12.404;2024-02-28T03:19:56;2.10;99.90
41882;DHT22;27562;47.524;12.404;2024-02-28T03:22:22;2.10;99.90
41882;DHT22;27562;47.524;12.404;2024-02-28T03:24:48;2.10;99.90
41882;DHT22;27562;47.524;12.404;2024-02-28T03:27:14;2.10;99.90
41882;DHT22;27562;47.524;12.404;2024-02-28T03:29:40;2.10;99.90
41882;DHT22;27562;47.524;12.404;2024-02-28T03:32:05;2.10;99.90
41882;DHT22;27562;47.524;12.404;2024-02-28T03:34:32;2.20;99.90
41882;DHT22;27562;47.524;12.404;2024-02-28T03:36:57;2.20;99.90
41882;DHT22;27562;47.524;12.404;2024-02-28T03:39:23;2.20;99.90
41882;DHT22;27562;47.524;12.404;2024-02-28T03:41:49;2.20;99.90
41882;DHT22;27562;47.524;12.404;2024-02-28T03:44:14;2.20;99.90
41882;DHT22;27562;47.524;12.404;2024-02-28T03:46:40;2.20;99.90
41882;DHT22;27562;47.524;12.404;2024-02-28T03:49:06;2.20;99.90
41882;DHT22;27562;47.524;12.404;2024-02-28T03:51:31;2.20;99.90
41882;DHT22;27562;47.524;12.404;2024-02-28T03:53:57;2.20;99.90
41882;DHT22;27562;47.524;12.404;2024-02-28T03:56:26;2.20;99.90
41882;DHT22;27562;47.524;12.404;2024-02-28T03:58:52;2.20;99.90
41882;DHT22;27562;47.524;12.404;2024-02-28T04:01:18;2.20;99.90
41882;DHT22;27562;47.524;12.404;2024-02-28T04:03:44;2.20;99.90
41882;DHT22;27562;47.524;12.404;2024-02-28T04:06:13;2.20;99.90
41882;DHT22;27562;47.524;12.404;2024-02-28T04:08:41;2.20;99.90
41882;DHT22;27562;47.524;12.404;2024-02-28T04:11:07;2.20;99.90
41882;DHT22;27562;47.524;12.404;2024-02-28T04:13:32;2.20;99.90
41882;DHT22;27562;47.524;12.404;2024-02-28T04:15:58;2.20;99.90
41882;DHT22;27562;47.524;12.404;2024-02-28T04:18:24;2.20;99.90
41882;DHT22;27562;47.524;12.404;2024-02-28T04:20:50;2.20;99.90
41882;DHT22;27562;47.524;12.404;2024-02-28T04:23:16;2.20;99.90
41882;DHT22;27562;47.524;12.404;2024-02-28T04:25:42;2.20;99.90
41882;DHT22;27562;47.524;12.404;2024-02-28T04:28:08;2.20;99.90
41882;DHT22;27562;47.524;12.404;2024-02-28T04:30:36;2.20;99.90
41882;DHT22;27562;47.524;12.404;2024-02-28T04:33:02;2.30;99.90
41882;DHT22;27562;47.524;12.404;2024-02-28T04:35:28;2.30;99.90
41882;DHT22;27562;47.524;12.404;2024-02-28T04:37:54;2.30;99.90
41882;DHT22;27562;47.524;12.404;2024-02-28T04:40:19;2.20;99.90
41882;DHT22;27562;47.524;12.404;2024-02-28T04:42:45;2.20;99.90
41882;DHT22;27562;47.524;12.404;2024-02-28T04:45:11;2.10;99.90
41882;DHT22;27562;47.524;12.404;2024-02-28T04:47:37;2.20;99.90
41882;DHT22;27562;47.524;12.404;2024-02-28T04:50:04;2.10;99.90
41882;DHT22;27562;47.524;12.404;2024-02-28T04:52:33;2.20;99.90
41882;DHT22;27562;47.524;12.404;2024-02-28T04:55:00;2.10;99.90
41882;DHT22;27562;47.524;12.404;2024-02-28T04:57:26;2.20;99.90
41882;DHT22;27562;47.524;12.404;2024-02-28T04:59:52;2.10;99.90
41882;DHT22;27562;47.524;12.404;2024-02-28T05:02:18;2.20;99.90
41882;DHT22;27562;47.524;12.404;2024-02-28T05:04:44;2.20;99.90
41882;DHT22;27562;47.524;12.404;2024-02-28T05:07:09;2.20;99.90
41882;DHT22;27562;47.524;12.404;2024-02-28T05:09:35;2.20;99.90
41882;DHT22;27562;47.524;12.404;2024-02-28T05:12:04;2.20;99.90
41882;DHT22;27562;47.524;12.404;2024-02-28T05:14:30;2.20;99.90
41882;DHT22;27562;47.524;12.404;2024-02-28T05:16:56;2.20;99.90
41882;DHT22;27562;47.524;12.404;2024-02-28T05:19:21;2.20;99.90
41882;DHT22;27562;47.524;12.404;2024-02-28T05:21:47;2.20;99.90
41882;DHT22;27562;47.524;12.404;2024-02-28T05:24:13;2.20;99.90
41882;DHT22;27562;47.524;12.404;2024-02-28T05:26:39;2.20;99.90
41882;DHT22;27562;47.524;12.404;2024-02-28T05:29:05;2.20;99.90
41882;DHT22;27562;47.524;12.404;2024-02-28T05:31:32;2.20;99.90
41882;DHT22;27562;47.524;12.404;2024-02-28T05:33:59;2.20;99.90
41882;DHT22;27562;47.524;12.404;2024-02-28T05:36:27;2.20;99.90
41882;DHT22;27562;47.524;12.404;2024-02-28T05:38:55;2.20;99.90
41882;DHT22;27562;47.524;12.404;2024-02-28T05:41:21;2.20;99.90
41882;DHT22;27562;47.524;12.404;2024-02-28T05:43:48;2.30;99.90
41882;DHT22;27562;47.524;12.404;2024-02-28T05:46:17;2.30;99.90
41882;DHT22;27562;47.524;12.404;2024-02-28T05:48:44;2.30;99.90
41882;DHT22;27562;47.524;12.404;2024-02-28T05:51:11;2.30;99.90
41882;DHT22;27562;47.524;12.404;2024-02-28T05:53:37;2.30;99.90
41882;DHT22;27562;47.524;12.404;2024-02-28T05:56:04;2.20;99.90
41882;DHT22;27562;47.524;12.404;2024-02-28T05:58:30;2.20;99.90
41882;DHT22;27562;47.524;12.404;2024-02-28T06:00:57;2.20;99.90
41882;DHT22;27562;47.524;12.404;2024-02-28T06:03:22;2.20;99.90
41882;DHT22;27562;47.524;12.404;2024-02-28T06:05:48;2.20;99.90
41882;DHT22;27562;47.524;12.404;2024-02-28T06:08:14;2.20;99.90
41882;DHT22;27562;47.524;12.404;2024-02-28T06:10:39;2.20;99.90
41882;DHT22;27562;47.524;12.404;2024-02-28T06:13:08;2.20;99.90
41882;DHT22;27562;47.524;12.404;2024-02-28T06:15:33;2.20;99.90
41882;DHT22;27562;47.524;12.404;2024-02-28T06:17:59;2.20;99.90
41882;DHT22;27562;47.524;12.404;2024-02-28T06:20:28;2.20;99.90
41882;DHT22;27562;47.524;12.404;2024-02-28T06:22:53;2.20;99.90
41882;DHT22;27562;47.524;12.404;2024-02-28T06:25:19;2.30;99.90
41882;DHT22;27562;47.524;12.404;2024-02-28T06:27:47;2.30;99.90
41882;DHT22;27562;47.524;12.404;2024-02-28T06:30:14;2.30;99.90
41882;DHT22;27562;47.524;12.404;2024-02-28T06:32:39;2.30;99.90
41882;DHT22;27562;47.524;12.404;2024-02-28T06:35:06;2.30;99.90
41882;DHT22;27562;47.524;12.404;2024-02-28T06:37:33;2.30;99.90
41882;DHT22;27562;47.524;12.404;2024-02-28T06:39:58;2.30;99.90
41882;DHT22;27562;47.524;12.404;2024-02-28T06:42:24;2.30;99.90
41882;DHT22;27562;47.524;12.404;2024-02-28T06:44:50;2.30;99.90
41882;DHT22;27562;47.524;12.404;2024-02-28T06:47:15;2.40;99.90
41882;DHT22;27562;47.524;12.404;2024-02-28T06:49:41;2.40;99.90
41882;DHT22;27562;47.524;12.404;2024-02-28T06:52:07;2.40;99.90
41882;DHT22;27562;47.524;12.404;2024-02-28T06:54:32;2.40;99.90
41882;DHT22;27562;47.524;12.404;2024-02-28T06:56:58;2.40;99.90
41882;DHT22;27562;47.524;12.404;2024-02-28T06:59:24;2.50;99.90
41882;DHT22;27562;47.524;12.404;2024-02-28T07:01:49;2.50;99.90
41882;DHT22;27562;47.524;12.404;2024-02-28T07:04:15;2.50;99.90
41882;DHT22;27562;47.524;12.404;2024-02-28T07:06:41;2.50;99.90
41882;DHT22;27562;47.524;12.404;2024-02-28T07:09:10;2.50;99.90
41882;DHT22;27562;47.524;12.404;2024-02-28T07:11:37;2.50;99.90
41882;DHT22;27562;47.524;12.404;2024-02-28T07:14:03;2.60;99.90
41882;DHT22;27562;47.524;12.404;2024-02-28T07:16:30;2.60;99.90
41882;DHT22;27562;47.524;12.404;2024-02-28T07:18:56;2.60;99.90
41882;DHT22;27562;47.524;12.404;2024-02-28T07:21:22;2.60;99.90
41882;DHT22;27562;47.524;12.404;2024-02-28T07:23:48;2.60;99.90
41882;DHT22;27562;47.524;12.404;2024-02-28T07:26:16;2.60;99.90
41882;DHT22;27562;47.524;12.404;2024-02-28T07:28:42;2.70;99.90
41882;DHT22;27562;47.524;12.404;2024-02-28T07:31:16;2.70;99.90
41882;DHT22;27562;47.524;12.404;2024-02-28T07:33:41;2.70;99.90
41882;DHT22;27562;47.524;12.404;2024-02-28T07:36:07;2.70;99.90
41882;DHT22;27562;47.524;12.404;2024-02-28T07:38:33;2.80;99.90
41882;DHT22;27562;47.524;12.404;2024-02-28T07:40:59;2.80;99.90
41882;DHT22;27562;47.524;12.404;2024-02-28T07:43:25;2.80;99.90
41882;DHT22;27562;47.524;12.404;2024-02-28T07:45:50;2.80;99.90
41882;DHT22;27562;47.524;12.404;2024-02-28T07:48:16;2.80;99.90
41882;DHT22;27562;47.524;12.404;2024-02-28T07:50:44;2.80;99.90
41882;DHT22;27562;47.524;12.404;2024-02-28T07:53:10;2.90;99.90
41882;DHT22;27562;47.524;12.404;2024-02-28T07:55:36;2.90;99.90
41882;DHT22;27562;47.524;12.404;2024-02-28T07:58:01;2.90;99.90
41882;DHT22;27562;47.524;12.404;2024-02-28T08:00:27;2.90;99.90
41882;DHT22;27562;47.524;12.404;2024-02-28T08:02:54;3.00;99.90
41882;DHT22;27562;47.524;12.404;2024-02-28T08:05:19;3.00;99.90
41882;DHT22;27562;47.524;12.404;2024-02-28T08:07:45;3.00;99.90
41882;DHT22;27562;47.524;12.404;2024-02-28T08:10:11;3.00;99.90
41882;DHT22;27562;47.524;12.404;2024-02-28T08:12:37;3.00;99.90
41882;DHT22;27562;47.524;12.404;2024-02-28T08:15:03;3.10;99.90
41882;DHT22;27562;47.524;12.404;2024-02-28T08:17:29;3.10;99.90
41882;DHT22;27562;47.524;12.404;2024-02-28T08:19:54;3.10;99.90
41882;DHT22;27562;47.524;12.404;2024-02-28T08:22:20;3.10;99.90
41882;DHT22;27562;47.524;12.404;2024-02-28T08:24:46;3.20;99.90
41882;DHT22;27562;47.524;12.404;2024-02-28T08:27:11;3.20;99.90
41882;DHT22;27562;47.524;12.404;2024-02-28T08:29:40;3.20;99.90
41882;DHT22;27562;47.524;12.404;2024-02-28T08:32:10;3.30;99.90
41882;DHT22;27562;47.524;12.404;2024-02-28T08:34:36;3.30;99.90
41882;DHT22;27562;47.524;12.404;2024-02-28T08:37:02;3.30;99.90
41882;DHT22;27562;47.524;12.404;2024-02-28T08:39:27;3.40;99.90
41882;DHT22;27562;47.524;12.404;2024-02-28T08:41:53;3.40;99.90
41882;DHT22;27562;47.524;12.404;2024-02-28T08:44:19;3.40;99.90
41882;DHT22;27562;47.524;12.404;2024-02-28T08:46:47;3.50;99.90
41882;DHT22;27562;47.524;12.404;2024-02-28T08:49:14;3.50;99.90
41882;DHT22;27562;47.524;12.404;2024-02-28T08:51:39;3.50;99.90
41882;DHT22;27562;47.524;12.404;2024-02-28T08:54:06;3.50;99.90
41882;DHT22;27562;47.524;12.404;2024-02-28T08:56:31;3.60;99.90
41882;DHT22;27562;47.524;12.404;2024-02-28T08:58:59;3.60;99.90
41882;DHT22;27562;47.524;12.404;2024-02-28T09:01:24;3.60;99.90
41882;DHT22;27562;47.524;12.404;2024-02-28T09:03:50;3.60;99.90
41882;DHT22;27562;47.524;12.404;2024-02-28T09:06:16;3.70;99.90
41882;DHT22;27562;47.524;12.404;2024-02-28T09:08:41;3.70;99.90
41882;DHT22;27562;47.524;12.404;2024-02-28T09:11:08;3.70;99.90
41882;DHT22;27562;47.524;12.404;2024-02-28T09:13:33;3.80;99.90
41882;DHT22;27562;47.524;12.404;2024-02-28T09:16:01;3.80;99.90
41882;DHT22;27562;47.524;12.404;2024-02-28T09:18:27;3.90;99.90
41882;DHT22;27562;47.524;12.404;2024-02-28T09:20:53;3.90;99.90
41882;DHT22;27562;47.524;12.404;2024-02-28T09:23:18;3.90;99.90
41882;DHT22;27562;47.524;12.404;2024-02-28T09:25:44;4.00;99.90
41882;DHT22;27562;47.524;12.404;2024-02-28T09:28:10;4.10;99.90
41882;DHT22;27562;47.524;12.404;2024-02-28T09:30:38;4.10;99.90
41882;DHT22;27562;47.524;12.404;2024-02-28T09:33:04;4.10;99.90
41882;DHT22;27562;47.524;12.404;2024-02-28T09:35:30;4.20;99.90
41882;DHT22;27562;47.524;12.404;2024-02-28T09:37:55;4.20;99.90
41882;DHT22;27562;47.524;12.404;2024-02-28T09:40:22;4.20;99.90
41882;DHT22;27562;47.524;12.404;2024-02-28T09:42:52;4.20;99.90
41882;DHT22;27562;47.524;12.404;2024-02-28T09:45:20;4.30;99.90
41882;DHT22;27562;47.524;12.404;2024-02-28T09:47:46;4.30;99.90
41882;DHT22;27562;47.524;12.404;2024-02-28T09:50:13;4.40;99.90
41882;DHT22;27562;47.524;12.404;2024-02-28T09:52:40;4.40;99.90
41882;DHT22;27562;47.524;12.404;2024-02-28T09:55:05;4.50;99.90
41882;DHT22;27562;47.524;12.404;2024-02-28T09:57:32;4.50;99.90
41882;DHT22;27562;47.524;12.404;2024-02-28T10:00:00;4.60;99.90
41882;DHT22;27562;47.524;12.404;2024-02-28T10:02:26;4.60;99.90
41882;DHT22;27562;47.524;12.404;2024-02-28T10:04:54;4.70;99.90
41882;DHT22;27562;47.524;12.404;2024-02-28T10:07:21;4.70;99.90
41882;DHT22;27562;47.524;12.404;2024-02-28T10:09:47;4.70;99.90
41882;DHT22;27562;47.524;12.404;2024-02-28T10:12:13;4.70;99.90
41882;DHT22;27562;47.524;12.404;2024-02-28T10:14:39;4.80;99.90
41882;DHT22;27562;47.524;12.404;2024-02-28T10:17:05;4.80;99.90
41882;DHT22;27562;47.524;12.404;2024-02-28T10:19:33;4.80;99.90
41882;DHT22;27562;47.524;12.404;2024-02-28T10:21:59;4.90;99.90
41882;DHT22;27562;47.524;12.404;2024-02-28T10:24:25;4.90;99.90
41882;DHT22;27562;47.524;12.404;2024-02-28T10:26:50;5.00;99.90
41882;DHT22;27562;47.524;12.404;2024-02-28T10:29:23;5.00;99.90
41882;DHT22;27562;47.524;12.404;2024-02-28T10:31:50;5.10;99.90
41882;DHT22;27562;47.524;12.404;2024-02-28T10:34:17;5.10;99.90
41882;DHT22;27562;47.524;12.404;2024-02-28T10:36:44;5.20;99.90
41882;DHT22;27562;47.524;12.404;2024-02-28T10:39:11;5.20;99.90
41882;DHT22;27562;47.524;12.404;2024-02-28T10:41:41;5.30;99.90
41882;DHT22;27562;47.524;12.404;2024-02-28T10:44:08;5.40;99.90
41882;DHT22;27562;47.524;12.404;2024-02-28T10:46:37;5.40;99.90
41882;DHT22;27562;47.524;12.404;2024-02-28T10:49:06;5.50;99.90
41882;DHT22;27562;47.524;12.404;2024-02-28T10:51:36;5.50;99.90
41882;DHT22;27562;47.524;12.404;2024-02-28T10:56:30;5.60;99.90
41882;DHT22;27562;47.524;12.404;2024-02-28T10:58:58;5.60;99.90
41882;DHT22;27562;47.524;12.404;2024-02-28T11:01:25;5.70;99.90
41882;DHT22;27562;47.524;12.404;2024-02-28T11:03:51;5.80;99.90
41882;DHT22;27562;47.524;12.404;2024-02-28T11:06:18;5.80;99.90
41882;DHT22;27562;47.524;12.404;2024-02-28T11:08:46;5.80;99.90
41882;DHT22;27562;47.524;12.404;2024-02-28T11:11:15;5.90;99.90
41882;DHT22;27562;47.524;12.404;2024-02-28T11:13:58;5.90;99.90
41882;DHT22;27562;47.524;12.404;2024-02-28T11:16:33;5.90;99.90
41882;DHT22;27562;47.524;12.404;2024-02-28T11:19:00;6.00;99.90
41882;DHT22;27562;47.524;12.404;2024-02-28T11:21:27;6.00;99.90
41882;DHT22;27562;47.524;12.404;2024-02-28T11:24:00;6.10;99.90
41882;DHT22;27562;47.524;12.404;2024-02-28T11:26:25;6.10;99.90
41882;DHT22;27562;47.524;12.404;2024-02-28T11:28:55;6.20;99.90
41882;DHT22;27562;47.524;12.404;2024-02-28T11:31:22;6.20;99.90
41882;DHT22;27562;47.524;12.404;2024-02-28T11:33:47;6.30;99.90
41882;DHT22;27562;47.524;12.404;2024-02-28T11:36:14;6.30;99.90
41882;DHT22;27562;47.524;12.404;2024-02-28T11:38:40;6.30;99.90
41882;DHT22;27562;47.524;12.404;2024-02-28T11:41:06;6.40;99.90
41882;DHT22;27562;47.524;12.404;2024-02-28T11:43:32;6.40;99.90
41882;DHT22;27562;47.524;12.404;2024-02-28T11:45:58;6.40;99.90
41882;DHT22;27562;47.524;12.404;2024-02-28T11:48:25;6.50;99.90
41882;DHT22;27562;47.524;12.404;2024-02-28T11:50:53;6.50;99.90
41882;DHT22;27562;47.524;12.404;2024-02-28T11:53:19;6.50;99.90
41882;DHT22;27562;47.524;12.404;2024-02-28T11:55:48;6.50;99.90
41882;DHT22;27562;47.524;12.404;2024-02-28T11:58:14;6.60;99.90
41882;DHT22;27562;47.524;12.404;2024-02-28T12:00:50;6.60;99.90
41882;DHT22;27562;47.524;12.404;2024-02-28T12:03:23;6.60;99.90
41882;DHT22;27562;47.524;12.404;2024-02-28T12:05:49;6.70;99.90
41882;DHT22;27562;47.524;12.404;2024-02-28T12:08:16;6.70;99.90
41882;DHT22;27562;47.524;12.404;2024-02-28T12:10:42;6.70;99.90
41882;DHT22;27562;47.524;12.404;2024-02-28T12:13:08;6.80;99.90
41882;DHT22;27562;47.524;12.404;2024-02-28T12:15:34;6.80;99.90
41882;DHT22;27562;47.524;12.404;2024-02-28T12:18:00;6.80;99.90
41882;DHT22;27562;47.524;12.404;2024-02-28T12:20:32;6.90;99.90
41882;DHT22;27562;47.524;12.404;2024-02-28T12:22:57;6.90;99.90
41882;DHT22;27562;47.524;12.404;2024-02-28T12:25:23;7.00;99.90
41882;DHT22;27562;47.524;12.404;2024-02-28T12:27:49;7.10;99.90
41882;DHT22;27562;47.524;12.404;2024-02-28T12:30:14;7.10;99.90
41882;DHT22;27562;47.524;12.404;2024-02-28T12:32:40;7.10;99.90
41882;DHT22;27562;47.524;12.404;2024-02-28T12:35:06;7.20;99.90
41882;DHT22;27562;47.524;12.404;2024-02-28T12:37:32;7.30;99.90
41882;DHT22;27562;47.524;12.404;2024-02-28T12:39:58;7.30;99.90
41882;DHT22;27562;47.524;12.404;2024-02-28T12:42:23;7.40;99.90
41882;DHT22;27562;47.524;12.404;2024-02-28T12:44:49;7.40;99.90
41882;DHT22;27562;47.524;12.404;2024-02-28T12:47:15;7.40;99.90
41882;DHT22;27562;47.524;12.404;2024-02-28T12:49:41;7.50;99.90
41882;DHT22;27562;47.524;12.404;2024-02-28T12:52:06;7.50;99.90
41882;DHT22;27562;47.524;12.404;2024-02-28T12:54:32;7.50;99.90
41882;DHT22;27562;47.524;12.404;2024-02-28T12:56:58;7.60;99.90
41882;DHT22;27562;47.524;12.404;2024-02-28T12:59:24;7.60;99.90
41882;DHT22;27562;47.524;12.404;2024-02-28T13:01:51;7.60;99.90
41882;DHT22;27562;47.524;12.404;2024-02-28T13:04:17;7.60;99.90
41882;DHT22;27562;47.524;12.404;2024-02-28T13:06:42;7.60;99.90
41882;DHT22;27562;47.524;12.404;2024-02-28T13:09:08;7.70;99.90
41882;DHT22;27562;47.524;12.404;2024-02-28T13:11:38;7.70;99.90
41882;DHT22;27562;47.524;12.404;2024-02-28T13:14:04;7.70;99.90
41882;DHT22;27562;47.524;12.404;2024-02-28T13:16:30;7.70;99.90
41882;DHT22;27562;47.524;12.404;2024-02-28T13:18:56;7.70;99.90
41882;DHT22;27562;47.524;12.404;2024-02-28T13:21:21;7.70;99.90
41882;DHT22;27562;47.524;12.404;2024-02-28T13:23:48;7.60;99.90
41882;DHT22;27562;47.524;12.404;2024-02-28T13:26:14;7.70;99.90
41882;DHT22;27562;47.524;12.404;2024-02-28T13:28:44;7.70;99.90
41882;DHT22;27562;47.524;12.404;2024-02-28T13:31:09;7.70;99.90
41882;DHT22;27562;47.524;12.404;2024-02-28T13:33:35;7.60;99.90
41882;DHT22;27562;47.524;12.404;2024-02-28T13:36:03;7.70;99.90
41882;DHT22;27562;47.524;12.404;2024-02-28T13:38:28;7.70;99.90
41882;DHT22;27562;47.524;12.404;2024-02-28T13:40:54;7.70;99.90
41882;DHT22;27562;47.524;12.404;2024-02-28T13:43:20;7.70;99.90
41882;DHT22;27562;47.524;12.404;2024-02-28T13:45:47;7.70;99.90
41882;DHT22;27562;47.524;12.404;2024-02-28T13:48:22;7.70;99.90
41882;DHT22;27562;47.524;12.404;2024-02-28T13:50:49;7.70;99.90
41882;DHT22;27562;47.524;12.404;2024-02-28T13:53:15;7.70;99.90
41882;DHT22;27562;47.524;12.404;2024-02-28T13:55:45;7.70;99.90
41882;DHT22;27562;47.524;12.404;2024-02-28T13:58:11;7.70;99.90
41882;DHT22;27562;47.524;12.404;2024-02-28T14:00:40;7.70;99.90
41882;DHT22;27562;47.524;12.404;2024-02-28T14:03:07;7.70;99.90
41882;DHT22;27562;47.524;12.404;2024-02-28T14:05:33;7.70;99.90
41882;DHT22;27562;47.524;12.404;2024-02-28T14:07:59;7.70;99.90
41882;DHT22;27562;47.524;12.404;2024-02-28T14:10:26;7.60;99.90
41882;DHT22;27562;47.524;12.404;2024-02-28T14:12:51;7.60;99.90
41882;DHT22;27562;47.524;12.404;2024-02-28T14:15:20;7.60;99.90
41882;DHT22;27562;47.524;12.404;2024-02-28T14:17:46;7.60;99.90
41882;DHT22;27562;47.524;12.404;2024-02-28T14:20:12;7.60;99.90
41882;DHT22;27562;47.524;12.404;2024-02-28T14:22:38;7.60;99.90
41882;DHT22;27562;47.524;12.404;2024-02-28T14:25:11;7.60;99.90
41882;DHT22;27562;47.524;12.404;2024-02-28T14:27:37;7.60;99.90
41882;DHT22;27562;47.524;12.404;2024-02-28T14:30:03;7.70;99.90
41882;DHT22;27562;47.524;12.404;2024-02-28T14:32:33;7.70;99.90
41882;DHT22;27562;47.524;12.404;2024-02-28T14:34:59;7.80;99.90
41882;DHT22;27562;47.524;12.404;2024-02-28T14:37:24;7.80;99.90
41882;DHT22;27562;47.524;12.404;2024-02-28T14:39:50;7.80;99.90
41882;DHT22;27562;47.524;12.404;2024-02-28T14:42:16;7.80;99.90
41882;DHT22;27562;47.524;12.404;2024-02-28T14:44:41;7.70;99.90
41882;DHT22;27562;47.524;12.404;2024-02-28T14:47:07;7.70;99.90
41882;DHT22;27562;47.524;12.404;2024-02-28T14:49:33;7.60;99.90
41882;DHT22;27562;47.524;12.404;2024-02-28T14:51:58;7.60;99.90
41882;DHT22;27562;47.524;12.404;2024-02-28T14:54:25;7.60;99.90
41882;DHT22;27562;47.524;12.404;2024-02-28T14:56:52;7.60;99.90
41882;DHT22;27562;47.524;12.404;2024-02-28T14:59:18;7.60;99.90
41882;DHT22;27562;47.524;12.404;2024-02-28T15:01:43;7.60;99.90
41882;DHT22;27562;47.524;12.404;2024-02-28T15:04:09;7.60;99.90
41882;DHT22;27562;47.524;12.404;2024-02-28T15:06:35;7.60;99.90
41882;DHT22;27562;47.524;12.404;2024-02-28T15:09:01;7.60;99.90
41882;DHT22;27562;47.524;12.404;2024-02-28T15:11:29;7.70;99.90
41882;DHT22;27562;47.524;12.404;2024-02-28T15:13:54;7.70;99.90
41882;DHT22;27562;47.524;12.404;2024-02-28T15:16:20;7.70;99.90
41882;DHT22;27562;47.524;12.404;2024-02-28T15:18:46;7.60;99.90
41882;DHT22;27562;47.524;12.404;2024-02-28T15:21:11;7.60;99.90
41882;DHT22;27562;47.524;12.404;2024-02-28T15:23:37;7.60;99.90
41882;DHT22;27562;47.524;12.404;2024-02-28T15:26:03;7.50;99.90